sensor_id;sensor_type;location;lat;lon;timestamp;P1;durP1;ratioP1;P2;durP2;ratioP2
21418;SDS011;10870;51.384;10.316;2023-03-18T00:00:16;5.50;;;2.70;;
21418;SDS011;10870;51.384;10.316;2023-03-18T00:02:20;5.38;;;2.45;;
21418;SDS011;10870;51.384;10.316;2023-03-18T00:04:27;6.05;;;2.33;;
21418;SDS011;10870;51.384;10.316;2023-03-18T00:06:28;6.78;;;2.60;;
21418;SDS011;10870;51.384;10.316;2023-03-18T00:08:34;3.75;;;2.38;;
21418;SDS011;10870;51.384;10.316;2023-03-18T00:10:37;7.38;;;2.05;;
21418;SDS011;10870;51.384;10.316;2023-03-18T00:12:39;5.07;;;2.47;;
21418;SDS011;10870;51.384;10.316;2023-03-18T00:14:41;4.18;;;2.75;;
21418;SDS011;10870;51.384;10.316;2023-03-18T00:16:49;6.32;;;2.30;;
21418;SDS011;10870;51.384;10.316;2023-03-18T00:18:51;5.13;;;2.30;;
21418;SDS011;10870;51.384;10.316;2023-03-18T00:20:53;3.50;;;2.47;;
21418;SDS011;10870;51.384;10.316;2023-03-18T00:22:55;6.65;;;2.47;;
21418;SDS011;10870;51.384;10.316;2023-03-18T00:24:56;6.50;;;2.72;;
21418;SDS011;10870;51.384;10.316;2023-03-18T00:26:58;5.82;;;2.63;;
21418;SDS011;10870;51.384;10.316;2023-03-18T00:29:00;3.80;;;2.05;;
21418;SDS011;10870;51.384;10.316;2023-03-18T00:31:05;3.40;;;2.45;;
21418;SDS011;10870;51.384;10.316;2023-03-18T00:33:10;4.78;;;2.30;;
21418;SDS011;10870;51.384;10.316;2023-03-18T00:35:12;6.93;;;3.00;;
21418;SDS011;10870;51.384;10.316;2023-03-18T00:37:13;5.60;;;2.78;;
21418;SDS011;10870;51.384;10.316;2023-03-18T00:39:19;4.13;;;2.40;;
21418;SDS011;10870;51.384;10.316;2023-03-18T00:41:25;8.50;;;2.65;;
21418;SDS011;10870;51.384;10.316;2023-03-18T00:43:28;4.40;;;2.80;;
21418;SDS011;10870;51.384;10.316;2023-03-18T00:45:36;4.40;;;2.80;;
21418;SDS011;10870;51.384;10.316;2023-03-18T00:47:37;6.15;;;2.95;;
21418;SDS011;10870;51.384;10.316;2023-03-18T00:49:39;3.97;;;2.85;;
21418;SDS011;10870;51.384;10.316;2023-03-18T00:51:42;5.82;;;2.50;;
21418;SDS011;10870;51.384;10.316;2023-03-18T00:53:45;3.85;;;2.58;;
21418;SDS011;10870;51.384;10.316;2023-03-18T00:55:49;6.43;;;2.65;;
21418;SDS011;10870;51.384;10.316;2023-03-18T00:57:53;5.25;;;2.67;;
21418;SDS011;10870;51.384;10.316;2023-03-18T00:59:58;4.80;;;2.80;;
21418;SDS011;10870;51.384;10.316;2023-03-18T01:01:59;7.15;;;2.30;;
21418;SDS011;10870;51.384;10.316;2023-03-18T01:04:04;6.95;;;2.90;;
21418;SDS011;10870;51.384;10.316;2023-03-18T01:06:05;4.60;;;3.03;;
21418;SDS011;10870;51.384;10.316;2023-03-18T01:08:07;6.28;;;3.20;;
21418;SDS011;10870;51.384;10.316;2023-03-18T01:10:16;8.07;;;2.85;;
21418;SDS011;10870;51.384;10.316;2023-03-18T01:12:17;5.70;;;3.00;;
21418;SDS011;10870;51.384;10.316;2023-03-18T01:14:24;5.72;;;2.83;;
21418;SDS011;10870;51.384;10.316;2023-03-18T01:16:27;4.70;;;2.72;;
21418;SDS011;10870;51.384;10.316;2023-03-18T01:18:30;5.00;;;2.42;;
21418;SDS011;10870;51.384;10.316;2023-03-18T01:20:36;7.50;;;2.65;;
21418;SDS011;10870;51.384;10.316;2023-03-18T01:22:42;5.05;;;2.60;;
21418;SDS011;10870;51.384;10.316;2023-03-18T01:24:46;5.85;;;2.65;;
21418;SDS011;10870;51.384;10.316;2023-03-18T01:26:48;8.02;;;2.70;;
21418;SDS011;10870;51.384;10.316;2023-03-18T01:28:49;4.03;;;2.53;;
21418;SDS011;10870;51.384;10.316;2023-03-18T01:30:54;5.57;;;2.40;;
21418;SDS011;10870;51.384;10.316;2023-03-18T01:33:15;6.57;;;2.63;;
21418;SDS011;10870;51.384;10.316;2023-03-18T01:35:37;6.90;;;2.95;;
21418;SDS011;10870;51.384;10.316;2023-03-18T01:37:57;6.15;;;2.72;;
21418;SDS011;10870;51.384;10.316;2023-03-18T01:40:00;4.53;;;2.50;;
21418;SDS011;10870;51.384;10.316;2023-03-18T01:42:02;3.53;;;2.60;;
21418;SDS011;10870;51.384;10.316;2023-03-18T01:44:08;5.22;;;2.88;;
21418;SDS011;10870;51.384;10.316;2023-03-18T01:48:34;3.97;;;1.95;;
21418;SDS011;10870;51.384;10.316;2023-03-18T01:50:40;3.53;;;2.65;;
21418;SDS011;10870;51.384;10.316;2023-03-18T01:52:42;5.88;;;2.30;;
21418;SDS011;10870;51.384;10.316;2023-03-18T01:55:06;7.55;;;2.67;;
21418;SDS011;10870;51.384;10.316;2023-03-18T01:57:08;3.75;;;2.88;;
21418;SDS011;10870;51.384;10.316;2023-03-18T01:59:16;3.83;;;2.40;;
21418;SDS011;10870;51.384;10.316;2023-03-18T02:01:29;6.40;;;2.95;;
21418;SDS011;10870;51.384;10.316;2023-03-18T02:03:33;5.50;;;3.10;;
21418;SDS011;10870;51.384;10.316;2023-03-18T02:05:34;3.75;;;2.78;;
21418;SDS011;10870;51.384;10.316;2023-03-18T02:07:36;5.15;;;3.33;;
21418;SDS011;10870;51.384;10.316;2023-03-18T02:09:38;4.65;;;2.28;;
21418;SDS011;10870;51.384;10.316;2023-03-18T02:11:42;4.68;;;2.70;;
21418;SDS011;10870;51.384;10.316;2023-03-18T02:13:48;3.65;;;2.55;;
21418;SDS011;10870;51.384;10.316;2023-03-18T02:15:58;4.85;;;2.53;;
21418;SDS011;10870;51.384;10.316;2023-03-18T02:18:09;7.70;;;2.85;;
21418;SDS011;10870;51.384;10.316;2023-03-18T02:22:27;6.57;;;3.22;;
21418;SDS011;10870;51.384;10.316;2023-03-18T02:24:32;8.45;;;2.75;;
21418;SDS011;10870;51.384;10.316;2023-03-18T02:27:01;7.28;;;3.08;;
21418;SDS011;10870;51.384;10.316;2023-03-18T02:29:05;5.70;;;2.60;;
21418;SDS011;10870;51.384;10.316;2023-03-18T02:31:09;3.83;;;2.67;;
21418;SDS011;10870;51.384;10.316;2023-03-18T02:33:11;6.20;;;3.45;;
21418;SDS011;10870;51.384;10.316;2023-03-18T02:35:17;6.50;;;2.70;;
21418;SDS011;10870;51.384;10.316;2023-03-18T02:37:25;6.78;;;3.50;;
21418;SDS011;10870;51.384;10.316;2023-03-18T02:39:26;5.50;;;3.00;;
21418;SDS011;10870;51.384;10.316;2023-03-18T02:41:33;5.38;;;3.08;;
21418;SDS011;10870;51.384;10.316;2023-03-18T02:43:35;8.57;;;3.17;;
21418;SDS011;10870;51.384;10.316;2023-03-18T02:45:44;5.57;;;3.20;;
21418;SDS011;10870;51.384;10.316;2023-03-18T02:47:52;7.43;;;3.30;;
21418;SDS011;10870;51.384;10.316;2023-03-18T02:49:56;6.03;;;3.25;;
21418;SDS011;10870;51.384;10.316;2023-03-18T02:52:01;10.88;;;3.47;;
21418;SDS011;10870;51.384;10.316;2023-03-18T02:54:07;6.38;;;2.85;;
21418;SDS011;10870;51.384;10.316;2023-03-18T02:56:12;5.20;;;3.17;;
21418;SDS011;10870;51.384;10.316;2023-03-18T02:58:14;4.63;;;3.28;;
21418;SDS011;10870;51.384;10.316;2023-03-18T03:00:23;5.60;;;3.22;;
21418;SDS011;10870;51.384;10.316;2023-03-18T03:02:24;5.57;;;3.13;;
21418;SDS011;10870;51.384;10.316;2023-03-18T03:04:28;6.78;;;3.20;;
21418;SDS011;10870;51.384;10.316;2023-03-18T03:06:31;6.25;;;3.53;;
21418;SDS011;10870;51.384;10.316;2023-03-18T03:08:35;8.85;;;3.60;;
21418;SDS011;10870;51.384;10.316;2023-03-18T03:10:36;8.85;;;3.63;;
21418;SDS011;10870;51.384;10.316;2023-03-18T03:12:38;6.20;;;3.28;;
21418;SDS011;10870;51.384;10.316;2023-03-18T03:14:42;6.45;;;3.25;;
21418;SDS011;10870;51.384;10.316;2023-03-18T03:16:44;6.63;;;3.58;;
21418;SDS011;10870;51.384;10.316;2023-03-18T03:18:45;8.45;;;3.25;;
21418;SDS011;10870;51.384;10.316;2023-03-18T03:20:48;11.32;;;3.30;;
21418;SDS011;10870;51.384;10.316;2023-03-18T03:22:52;5.85;;;3.45;;
21418;SDS011;10870;51.384;10.316;2023-03-18T03:24:54;10.85;;;3.15;;
21418;SDS011;10870;51.384;10.316;2023-03-18T03:26:58;10.77;;;3.28;;
21418;SDS011;10870;51.384;10.316;2023-03-18T03:29:03;6.30;;;3.40;;
21418;SDS011;10870;51.384;10.316;2023-03-18T03:31:07;5.78;;;2.92;;
21418;SDS011;10870;51.384;10.316;2023-03-18T03:33:12;8.38;;;3.47;;
21418;SDS011;10870;51.384;10.316;2023-03-18T03:35:16;6.32;;;3.22;;
21418;SDS011;10870;51.384;10.316;2023-03-18T03:37:19;7.40;;;3.25;;
21418;SDS011;10870;51.384;10.316;2023-03-18T03:39:23;7.75;;;3.88;;
21418;SDS011;10870;51.384;10.316;2023-03-18T03:41:27;6.57;;;3.88;;
21418;SDS011;10870;51.384;10.316;2023-03-18T03:43:32;10.80;;;3.90;;
21418;SDS011;10870;51.384;10.316;2023-03-18T03:45:37;5.90;;;3.35;;
21418;SDS011;10870;51.384;10.316;2023-03-18T03:47:39;5.35;;;3.88;;
21418;SDS011;10870;51.384;10.316;2023-03-18T03:49:45;7.07;;;4.43;;
21418;SDS011;10870;51.384;10.316;2023-03-18T03:51:49;8.02;;;3.92;;
21418;SDS011;10870;51.384;10.316;2023-03-18T03:53:51;8.13;;;4.15;;
21418;SDS011;10870;51.384;10.316;2023-03-18T03:55:54;7.93;;;4.30;;
21418;SDS011;10870;51.384;10.316;2023-03-18T03:57:56;8.95;;;4.88;;
21418;SDS011;10870;51.384;10.316;2023-03-18T04:00:03;7.22;;;3.75;;
21418;SDS011;10870;51.384;10.316;2023-03-18T04:02:07;5.25;;;3.65;;
21418;SDS011;10870;51.384;10.316;2023-03-18T04:04:13;11.40;;;4.25;;
21418;SDS011;10870;51.384;10.316;2023-03-18T04:06:14;5.07;;;3.95;;
21418;SDS011;10870;51.384;10.316;2023-03-18T04:08:16;7.53;;;3.75;;
21418;SDS011;10870;51.384;10.316;2023-03-18T04:10:18;5.97;;;3.38;;
21418;SDS011;10870;51.384;10.316;2023-03-18T04:12:24;7.45;;;3.65;;
21418;SDS011;10870;51.384;10.316;2023-03-18T04:14:26;7.25;;;3.92;;
21418;SDS011;10870;51.384;10.316;2023-03-18T04:16:27;6.97;;;3.33;;
21418;SDS011;10870;51.384;10.316;2023-03-18T04:18:29;7.55;;;3.72;;
21418;SDS011;10870;51.384;10.316;2023-03-18T04:20:33;7.40;;;3.83;;
21418;SDS011;10870;51.384;10.316;2023-03-18T04:22:37;8.18;;;3.58;;
21418;SDS011;10870;51.384;10.316;2023-03-18T04:24:38;8.65;;;4.20;;
21418;SDS011;10870;51.384;10.316;2023-03-18T04:26:45;5.05;;;3.33;;
21418;SDS011;10870;51.384;10.316;2023-03-18T04:28:47;5.28;;;3.63;;
21418;SDS011;10870;51.384;10.316;2023-03-18T04:30:49;4.70;;;3.10;;
21418;SDS011;10870;51.384;10.316;2023-03-18T04:32:51;7.22;;;3.47;;
21418;SDS011;10870;51.384;10.316;2023-03-18T04:34:54;4.72;;;3.60;;
21418;SDS011;10870;51.384;10.316;2023-03-18T04:36:55;5.50;;;3.92;;
21418;SDS011;10870;51.384;10.316;2023-03-18T04:38:57;4.90;;;3.83;;
21418;SDS011;10870;51.384;10.316;2023-03-18T04:41:01;5.80;;;4.00;;
21418;SDS011;10870;51.384;10.316;2023-03-18T04:43:03;7.28;;;4.05;;
21418;SDS011;10870;51.384;10.316;2023-03-18T04:45:05;7.30;;;4.40;;
21418;SDS011;10870;51.384;10.316;2023-03-18T04:47:12;5.90;;;3.30;;
21418;SDS011;10870;51.384;10.316;2023-03-18T04:49:16;6.22;;;4.57;;
21418;SDS011;10870;51.384;10.316;2023-03-18T04:51:18;10.10;;;4.13;;
21418;SDS011;10870;51.384;10.316;2023-03-18T04:53:22;8.57;;;3.05;;
21418;SDS011;10870;51.384;10.316;2023-03-18T04:55:26;5.25;;;3.40;;
21418;SDS011;10870;51.384;10.316;2023-03-18T04:57:27;8.00;;;3.63;;
21418;SDS011;10870;51.384;10.316;2023-03-18T04:59:31;8.48;;;3.88;;
21418;SDS011;10870;51.384;10.316;2023-03-18T05:01:32;7.32;;;3.92;;
21418;SDS011;10870;51.384;10.316;2023-03-18T05:03:34;4.80;;;2.92;;
21418;SDS011;10870;51.384;10.316;2023-03-18T05:05:38;6.75;;;3.47;;
21418;SDS011;10870;51.384;10.316;2023-03-18T05:07:40;6.97;;;3.58;;
21418;SDS011;10870;51.384;10.316;2023-03-18T05:09:45;7.55;;;3.50;;
21418;SDS011;10870;51.384;10.316;2023-03-18T05:11:47;6.07;;;3.50;;
21418;SDS011;10870;51.384;10.316;2023-03-18T05:13:49;8.10;;;3.67;;
21418;SDS011;10870;51.384;10.316;2023-03-18T05:15:53;4.28;;;2.63;;
21418;SDS011;10870;51.384;10.316;2023-03-18T05:17:57;7.78;;;3.50;;
21418;SDS011;10870;51.384;10.316;2023-03-18T05:20:09;5.47;;;3.38;;
21418;SDS011;10870;51.384;10.316;2023-03-18T05:22:12;5.78;;;3.03;;
21418;SDS011;10870;51.384;10.316;2023-03-18T05:24:15;6.38;;;3.75;;
21418;SDS011;10870;51.384;10.316;2023-03-18T05:26:16;6.68;;;3.60;;
21418;SDS011;10870;51.384;10.316;2023-03-18T05:28:19;5.82;;;3.42;;
21418;SDS011;10870;51.384;10.316;2023-03-18T05:30:23;5.07;;;3.10;;
21418;SDS011;10870;51.384;10.316;2023-03-18T05:32:28;10.18;;;3.25;;
21418;SDS011;10870;51.384;10.316;2023-03-18T05:34:32;5.47;;;3.20;;
21418;SDS011;10870;51.384;10.316;2023-03-18T05:36:36;6.13;;;3.25;;
21418;SDS011;10870;51.384;10.316;2023-03-18T05:38:41;5.80;;;3.20;;
21418;SDS011;10870;51.384;10.316;2023-03-18T05:40:42;4.88;;;2.42;;
21418;SDS011;10870;51.384;10.316;2023-03-18T05:42:46;5.15;;;2.42;;
21418;SDS011;10870;51.384;10.316;2023-03-18T05:44:50;4.47;;;2.83;;
21418;SDS011;10870;51.384;10.316;2023-03-18T05:46:56;5.00;;;2.90;;
21418;SDS011;10870;51.384;10.316;2023-03-18T05:48:58;5.20;;;2.97;;
21418;SDS011;10870;51.384;10.316;2023-03-18T05:51:02;4.95;;;3.15;;
21418;SDS011;10870;51.384;10.316;2023-03-18T05:53:08;3.80;;;3.05;;
21418;SDS011;10870;51.384;10.316;2023-03-18T05:55:15;6.75;;;2.80;;
21418;SDS011;10870;51.384;10.316;2023-03-18T05:57:21;3.55;;;2.00;;
21418;SDS011;10870;51.384;10.316;2023-03-18T05:59:25;7.22;;;2.30;;
21418;SDS011;10870;51.384;10.316;2023-03-18T06:01:31;4.35;;;2.40;;
21418;SDS011;10870;51.384;10.316;2023-03-18T06:03:34;7.03;;;2.80;;
21418;SDS011;10870;51.384;10.316;2023-03-18T06:05:40;3.90;;;2.72;;
21418;SDS011;10870;51.384;10.316;2023-03-18T06:07:43;6.97;;;3.35;;
21418;SDS011;10870;51.384;10.316;2023-03-18T06:09:49;5.00;;;2.97;;
21418;SDS011;10870;51.384;10.316;2023-03-18T06:11:51;3.63;;;2.38;;
21418;SDS011;10870;51.384;10.316;2023-03-18T06:13:57;5.23;;;3.13;;
21418;SDS011;10870;51.384;10.316;2023-03-18T06:15:59;4.32;;;2.42;;
21418;SDS011;10870;51.384;10.316;2023-03-18T06:18:03;3.78;;;2.58;;
21418;SDS011;10870;51.384;10.316;2023-03-18T06:20:07;3.47;;;2.30;;
21418;SDS011;10870;51.384;10.316;2023-03-18T06:22:12;4.78;;;2.60;;
21418;SDS011;10870;51.384;10.316;2023-03-18T06:24:16;4.78;;;2.40;;
21418;SDS011;10870;51.384;10.316;2023-03-18T06:26:26;4.78;;;2.90;;
21418;SDS011;10870;51.384;10.316;2023-03-18T06:28:28;7.72;;;2.83;;
21418;SDS011;10870;51.384;10.316;2023-03-18T06:30:38;4.68;;;2.60;;
21418;SDS011;10870;51.384;10.316;2023-03-18T06:32:39;3.78;;;2.80;;
21418;SDS011;10870;51.384;10.316;2023-03-18T06:34:45;5.05;;;2.75;;
21418;SDS011;10870;51.384;10.316;2023-03-18T06:36:52;5.63;;;3.17;;
21418;SDS011;10870;51.384;10.316;2023-03-18T06:38:53;6.88;;;3.33;;
21418;SDS011;10870;51.384;10.316;2023-03-18T06:40:58;7.05;;;3.85;;
21418;SDS011;10870;51.384;10.316;2023-03-18T06:43:04;5.75;;;3.33;;
21418;SDS011;10870;51.384;10.316;2023-03-18T06:45:07;5.43;;;2.78;;
21418;SDS011;10870;51.384;10.316;2023-03-18T06:47:09;6.38;;;3.13;;
21418;SDS011;10870;51.384;10.316;2023-03-18T06:49:13;7.72;;;3.50;;
21418;SDS011;10870;51.384;10.316;2023-03-18T06:51:18;6.75;;;2.90;;
21418;SDS011;10870;51.384;10.316;2023-03-18T06:53:24;6.80;;;3.63;;
21418;SDS011;10870;51.384;10.316;2023-03-18T06:55:27;6.35;;;3.47;;
21418;SDS011;10870;51.384;10.316;2023-03-18T06:57:31;5.30;;;3.40;;
21418;SDS011;10870;51.384;10.316;2023-03-18T06:59:33;4.78;;;2.80;;
21418;SDS011;10870;51.384;10.316;2023-03-18T07:01:37;7.38;;;3.25;;
21418;SDS011;10870;51.384;10.316;2023-03-18T07:03:40;5.13;;;3.50;;
21418;SDS011;10870;51.384;10.316;2023-03-18T07:05:42;4.22;;;3.15;;
21418;SDS011;10870;51.384;10.316;2023-03-18T07:07:46;7.60;;;3.10;;
21418;SDS011;10870;51.384;10.316;2023-03-18T07:09:50;4.93;;;3.45;;
21418;SDS011;10870;51.384;10.316;2023-03-18T07:11:51;6.93;;;3.80;;
21418;SDS011;10870;51.384;10.316;2023-03-18T07:13:56;5.07;;;3.00;;
21418;SDS011;10870;51.384;10.316;2023-03-18T07:16:02;4.75;;;2.95;;
21418;SDS011;10870;51.384;10.316;2023-03-18T07:18:03;6.60;;;3.85;;
21418;SDS011;10870;51.384;10.316;2023-03-18T07:20:08;6.15;;;3.58;;
21418;SDS011;10870;51.384;10.316;2023-03-18T07:22:49;3.75;;;3.20;;
21418;SDS011;10870;51.384;10.316;2023-03-18T07:24:53;5.00;;;3.50;;
21418;SDS011;10870;51.384;10.316;2023-03-18T07:26:59;4.38;;;3.47;;
21418;SDS011;10870;51.384;10.316;2023-03-18T07:29:03;4.35;;;3.15;;
21418;SDS011;10870;51.384;10.316;2023-03-18T07:31:05;6.28;;;3.25;;
21418;SDS011;10870;51.384;10.316;2023-03-18T07:33:12;6.10;;;3.72;;
21418;SDS011;10870;51.384;10.316;2023-03-18T07:35:15;5.80;;;3.22;;
21418;SDS011;10870;51.384;10.316;2023-03-18T07:37:17;6.70;;;3.47;;
21418;SDS011;10870;51.384;10.316;2023-03-18T07:39:20;4.55;;;3.13;;
21418;SDS011;10870;51.384;10.316;2023-03-18T07:41:24;5.78;;;3.40;;
21418;SDS011;10870;51.384;10.316;2023-03-18T07:43:29;5.70;;;3.17;;
21418;SDS011;10870;51.384;10.316;2023-03-18T07:45:31;4.32;;;3.67;;
21418;SDS011;10870;51.384;10.316;2023-03-18T07:47:32;7.35;;;3.97;;
21418;SDS011;10870;51.384;10.316;2023-03-18T07:49:36;7.72;;;3.58;;
21418;SDS011;10870;51.384;10.316;2023-03-18T07:51:37;6.65;;;3.15;;
21418;SDS011;10870;51.384;10.316;2023-03-18T07:53:40;5.22;;;3.63;;
21418;SDS011;10870;51.384;10.316;2023-03-18T07:55:41;5.82;;;3.20;;
21418;SDS011;10870;51.384;10.316;2023-03-18T07:57:46;9.18;;;3.90;;
21418;SDS011;10870;51.384;10.316;2023-03-18T07:59:48;4.40;;;2.90;;
21418;SDS011;10870;51.384;10.316;2023-03-18T08:01:50;4.35;;;3.40;;
21418;SDS011;10870;51.384;10.316;2023-03-18T08:03:53;4.95;;;3.10;;
21418;SDS011;10870;51.384;10.316;2023-03-18T08:05:54;8.55;;;3.60;;
21418;SDS011;10870;51.384;10.316;2023-03-18T08:07:58;7.53;;;3.70;;
21418;SDS011;10870;51.384;10.316;2023-03-18T08:10:03;7.30;;;3.47;;
21418;SDS011;10870;51.384;10.316;2023-03-18T08:12:11;5.85;;;3.78;;
21418;SDS011;10870;51.384;10.316;2023-03-18T08:14:16;7.53;;;4.03;;
21418;SDS011;10870;51.384;10.316;2023-03-18T08:16:21;4.03;;;2.85;;
21418;SDS011;10870;51.384;10.316;2023-03-18T08:18:37;7.32;;;3.60;;
21418;SDS011;10870;51.384;10.316;2023-03-18T08:20:41;5.95;;;3.80;;
21418;SDS011;10870;51.384;10.316;2023-03-18T08:22:46;7.95;;;3.30;;
21418;SDS011;10870;51.384;10.316;2023-03-18T08:24:47;6.57;;;3.55;;
21418;SDS011;10870;51.384;10.316;2023-03-18T08:26:51;10.13;;;3.90;;
21418;SDS011;10870;51.384;10.316;2023-03-18T08:28:53;9.95;;;3.35;;
21418;SDS011;10870;51.384;10.316;2023-03-18T08:30:57;9.40;;;4.07;;
21418;SDS011;10870;51.384;10.316;2023-03-18T08:33:04;6.10;;;3.65;;
21418;SDS011;10870;51.384;10.316;2023-03-18T08:35:06;5.70;;;3.67;;
21418;SDS011;10870;51.384;10.316;2023-03-18T08:37:09;10.73;;;4.00;;
21418;SDS011;10870;51.384;10.316;2023-03-18T08:39:12;7.90;;;3.53;;
21418;SDS011;10870;51.384;10.316;2023-03-18T08:41:14;7.13;;;3.90;;
21418;SDS011;10870;51.384;10.316;2023-03-18T08:43:17;5.53;;;3.72;;
21418;SDS011;10870;51.384;10.316;2023-03-18T08:45:21;6.90;;;3.50;;
21418;SDS011;10870;51.384;10.316;2023-03-18T08:47:23;7.78;;;3.22;;
21418;SDS011;10870;51.384;10.316;2023-03-18T08:49:25;4.25;;;3.55;;
21418;SDS011;10870;51.384;10.316;2023-03-18T08:51:29;9.85;;;4.43;;
21418;SDS011;10870;51.384;10.316;2023-03-18T08:53:32;5.28;;;3.60;;
21418;SDS011;10870;51.384;10.316;2023-03-18T08:55:36;5.32;;;4.00;;
21418;SDS011;10870;51.384;10.316;2023-03-18T08:57:40;8.65;;;3.85;;
21418;SDS011;10870;51.384;10.316;2023-03-18T08:59:42;9.18;;;3.40;;
21418;SDS011;10870;51.384;10.316;2023-03-18T09:01:43;8.50;;;4.10;;
21418;SDS011;10870;51.384;10.316;2023-03-18T09:03:51;6.55;;;3.53;;
21418;SDS011;10870;51.384;10.316;2023-03-18T09:05:55;5.57;;;3.80;;
21418;SDS011;10870;51.384;10.316;2023-03-18T09:07:56;8.57;;;3.47;;
21418;SDS011;10870;51.384;10.316;2023-03-18T09:10:02;8.18;;;3.20;;
21418;SDS011;10870;51.384;10.316;2023-03-18T09:12:13;6.22;;;3.90;;
21418;SDS011;10870;51.384;10.316;2023-03-18T09:14:17;4.32;;;3.50;;
21418;SDS011;10870;51.384;10.316;2023-03-18T09:16:20;4.25;;;3.03;;
21418;SDS011;10870;51.384;10.316;2023-03-18T09:18:26;6.05;;;3.30;;
21418;SDS011;10870;51.384;10.316;2023-03-18T09:20:34;6.88;;;3.33;;
21418;SDS011;10870;51.384;10.316;2023-03-18T09:22:41;6.45;;;3.30;;
21418;SDS011;10870;51.384;10.316;2023-03-18T09:24:43;7.15;;;3.60;;
21418;SDS011;10870;51.384;10.316;2023-03-18T09:26:49;5.63;;;3.42;;
21418;SDS011;10870;51.384;10.316;2023-03-18T09:28:50;5.10;;;3.58;;
21418;SDS011;10870;51.384;10.316;2023-03-18T09:30:54;3.75;;;2.83;;
21418;SDS011;10870;51.384;10.316;2023-03-18T09:33:03;5.05;;;3.28;;
21418;SDS011;10870;51.384;10.316;2023-03-18T09:35:06;6.55;;;3.53;;
21418;SDS011;10870;51.384;10.316;2023-03-18T09:37:11;8.02;;;3.42;;
21418;SDS011;10870;51.384;10.316;2023-03-18T09:39:14;8.48;;;3.72;;
21418;SDS011;10870;51.384;10.316;2023-03-18T09:41:50;6.35;;;3.50;;
21418;SDS011;10870;51.384;10.316;2023-03-18T09:44:03;6.78;;;3.60;;
21418;SDS011;10870;51.384;10.316;2023-03-18T09:53:09;8.82;;;3.83;;
21418;SDS011;10870;51.384;10.316;2023-03-18T09:57:22;8.32;;;3.83;;
21418;SDS011;10870;51.384;10.316;2023-03-18T09:59:35;7.63;;;4.00;;
21418;SDS011;10870;51.384;10.316;2023-03-18T10:01:38;4.78;;;3.20;;
21418;SDS011;10870;51.384;10.316;2023-03-18T10:03:42;6.25;;;3.95;;
21418;SDS011;10870;51.384;10.316;2023-03-18T10:07:53;6.38;;;3.80;;
21418;SDS011;10870;51.384;10.316;2023-03-18T10:09:59;10.20;;;3.67;;
21418;SDS011;10870;51.384;10.316;2023-03-18T10:12:06;6.13;;;3.70;;
21418;SDS011;10870;51.384;10.316;2023-03-18T10:16:33;6.20;;;3.58;;
21418;SDS011;10870;51.384;10.316;2023-03-18T10:18:39;6.63;;;4.40;;
21418;SDS011;10870;51.384;10.316;2023-03-18T10:20:50;8.40;;;3.63;;
21418;SDS011;10870;51.384;10.316;2023-03-18T10:25:04;5.03;;;2.90;;
21418;SDS011;10870;51.384;10.316;2023-03-18T10:27:18;8.25;;;3.83;;
21418;SDS011;10870;51.384;10.316;2023-03-18T10:29:36;5.28;;;3.25;;
21418;SDS011;10870;51.384;10.316;2023-03-18T10:33:47;4.47;;;3.55;;
21418;SDS011;10870;51.384;10.316;2023-03-18T10:35:58;9.38;;;3.70;;
21418;SDS011;10870;51.384;10.316;2023-03-18T10:38:24;5.03;;;3.45;;
21418;SDS011;10870;51.384;10.316;2023-03-18T10:40:35;5.22;;;3.47;;
21418;SDS011;10870;51.384;10.316;2023-03-18T10:42:40;7.68;;;3.35;;
21418;SDS011;10870;51.384;10.316;2023-03-18T10:44:42;5.38;;;2.72;;
21418;SDS011;10870;51.384;10.316;2023-03-18T10:46:56;4.28;;;2.80;;
21418;SDS011;10870;51.384;10.316;2023-03-18T10:53:45;6.70;;;3.50;;
21418;SDS011;10870;51.384;10.316;2023-03-18T10:55:54;3.55;;;2.35;;
21418;SDS011;10870;51.384;10.316;2023-03-18T10:57:57;5.93;;;3.38;;
21418;SDS011;10870;51.384;10.316;2023-03-18T11:00:01;5.28;;;2.58;;
21418;SDS011;10870;51.384;10.316;2023-03-18T11:02:04;3.88;;;2.97;;
21418;SDS011;10870;51.384;10.316;2023-03-18T11:04:14;4.53;;;2.53;;
21418;SDS011;10870;51.384;10.316;2023-03-18T11:06:39;3.83;;;2.47;;
21418;SDS011;10870;51.384;10.316;2023-03-18T11:08:41;3.45;;;2.42;;
21418;SDS011;10870;51.384;10.316;2023-03-18T11:10:47;6.35;;;3.13;;
21418;SDS011;10870;51.384;10.316;2023-03-18T11:12:53;8.10;;;2.85;;
21418;SDS011;10870;51.384;10.316;2023-03-18T11:14:57;3.65;;;2.42;;
21418;SDS011;10870;51.384;10.316;2023-03-18T11:17:04;4.63;;;2.47;;
21418;SDS011;10870;51.384;10.316;2023-03-18T11:19:21;2.88;;;2.00;;
21418;SDS011;10870;51.384;10.316;2023-03-18T11:21:25;4.85;;;2.40;;
21418;SDS011;10870;51.384;10.316;2023-03-18T11:23:37;3.28;;;1.92;;
21418;SDS011;10870;51.384;10.316;2023-03-18T11:25:55;2.75;;;1.83;;
21418;SDS011;10870;51.384;10.316;2023-03-18T11:28:02;2.22;;;1.90;;
21418;SDS011;10870;51.384;10.316;2023-03-18T11:30:12;5.07;;;1.85;;
21418;SDS011;10870;51.384;10.316;2023-03-18T11:32:31;3.30;;;2.10;;
21418;SDS011;10870;51.384;10.316;2023-03-18T11:34:33;6.38;;;1.80;;
21418;SDS011;10870;51.384;10.316;2023-03-18T11:36:37;2.60;;;1.70;;
21418;SDS011;10870;51.384;10.316;2023-03-18T11:38:40;1.75;;;1.60;;
21418;SDS011;10870;51.384;10.316;2023-03-18T11:40:42;3.47;;;1.77;;
21418;SDS011;10870;51.384;10.316;2023-03-18T11:42:45;3.58;;;1.52;;
21418;SDS011;10870;51.384;10.316;2023-03-18T11:44:53;2.60;;;1.70;;
21418;SDS011;10870;51.384;10.316;2023-03-18T11:49:02;3.00;;;1.65;;
21418;SDS011;10870;51.384;10.316;2023-03-18T11:51:24;2.42;;;1.60;;
21418;SDS011;10870;51.384;10.316;2023-03-18T11:53:38;5.22;;;1.92;;
21418;SDS011;10870;51.384;10.316;2023-03-18T12:00:35;2.00;;;1.58;;
21418;SDS011;10870;51.384;10.316;2023-03-18T12:18:35;3.60;;;1.90;;
21418;SDS011;10870;51.384;10.316;2023-03-18T12:22:59;5.72;;;2.00;;
21418;SDS011;10870;51.384;10.316;2023-03-18T12:27:15;1.92;;;1.40;;
21418;SDS011;10870;51.384;10.316;2023-03-18T12:40:45;5.07;;;2.05;;
21418;SDS011;10870;51.384;10.316;2023-03-18T12:45:13;3.55;;;1.70;;
21418;SDS011;10870;51.384;10.316;2023-03-18T12:47:21;4.15;;;1.58;;
21418;SDS011;10870;51.384;10.316;2023-03-18T12:49:24;3.10;;;1.70;;
21418;SDS011;10870;51.384;10.316;2023-03-18T12:51:34;4.95;;;2.28;;
21418;SDS011;10870;51.384;10.316;2023-03-18T12:53:42;6.85;;;1.67;;
21418;SDS011;10870;51.384;10.316;2023-03-18T12:55:46;3.72;;;1.63;;
21418;SDS011;10870;51.384;10.316;2023-03-18T12:57:57;2.72;;;1.88;;
21418;SDS011;10870;51.384;10.316;2023-03-18T13:00:13;3.15;;;1.90;;
21418;SDS011;10870;51.384;10.316;2023-03-18T13:02:24;6.55;;;1.98;;
21418;SDS011;10870;51.384;10.316;2023-03-18T13:04:32;3.97;;;1.77;;
21418;SDS011;10870;51.384;10.316;2023-03-18T13:06:43;3.53;;;1.98;;
21418;SDS011;10870;51.384;10.316;2023-03-18T13:13:26;4.18;;;1.95;;
21418;SDS011;10870;51.384;10.316;2023-03-18T13:15:34;4.22;;;2.05;;
21418;SDS011;10870;51.384;10.316;2023-03-18T13:17:39;7.07;;;1.75;;
21418;SDS011;10870;51.384;10.316;2023-03-18T13:19:41;3.45;;;1.92;;
21418;SDS011;10870;51.384;10.316;2023-03-18T13:21:45;7.60;;;1.95;;
21418;SDS011;10870;51.384;10.316;2023-03-18T13:26:09;5.45;;;1.95;;
21418;SDS011;10870;51.384;10.316;2023-03-18T13:33:10;4.40;;;1.67;;
21418;SDS011;10870;51.384;10.316;2023-03-18T13:36:00;5.03;;;1.95;;
21418;SDS011;10870;51.384;10.316;2023-03-18T13:42:32;2.58;;;1.70;;
21418;SDS011;10870;51.384;10.316;2023-03-18T13:46:46;8.02;;;2.20;;
21418;SDS011;10870;51.384;10.316;2023-03-18T13:48:56;5.25;;;1.80;;